createdAt,value
2023-05-27T00:00:06.900Z,37.63
2023-05-27T00:01:06.956Z,37.61
2023-05-27T00:02:07.015Z,37.58
2023-05-27T00:03:07.152Z,37.55
2023-05-27T00:04:07.299Z,37.57
2023-05-27T00:05:07.286Z,37.57
2023-05-27T00:06:07.236Z,37.57
2023-05-27T00:07:07.256Z,37.56
2023-05-27T00:08:07.330Z,37.55
2023-05-27T00:09:07.390Z,37.57
2023-05-27T00:10:07.434Z,37.53
2023-05-27T00:11:07.981Z,37.54
2023-05-27T00:12:07.562Z,37.55
2023-05-27T00:13:07.609Z,37.55
2023-05-27T00:14:07.644Z,37.56
2023-05-27T00:15:07.723Z,37.55
2023-05-27T00:16:07.835Z,37.55
2023-05-27T00:17:07.837Z,37.53
2023-05-27T00:18:07.950Z,37.52
2023-05-27T00:19:07.955Z,37.50
2023-05-27T00:20:08.034Z,37.48
2023-05-27T00:21:08.078Z,37.49
2023-05-27T00:22:08.137Z,37.48
2023-05-27T00:23:08.136Z,37.49
2023-05-27T00:24:08.213Z,37.47
2023-05-27T00:25:08.284Z,37.47
2023-05-27T00:26:08.318Z,37.46
2023-05-27T00:27:08.376Z,37.42
2023-05-27T00:28:08.430Z,37.46
2023-05-27T00:29:08.518Z,37.46
2023-05-27T00:30:08.590Z,37.46
2023-05-27T00:31:08.569Z,37.44
2023-05-27T00:32:08.707Z,37.46
2023-05-27T00:33:08.771Z,37.45
2023-05-27T00:34:08.750Z,37.44
2023-05-27T00:35:08.818Z,37.44
2023-05-27T00:36:08.904Z,37.49
2023-05-27T00:37:08.948Z,37.49
2023-05-27T00:38:09.010Z,37.49
2023-05-27T00:39:09.072Z,37.49
2023-05-27T00:40:09.100Z,37.51
2023-05-27T00:41:09.163Z,37.51
2023-05-27T00:42:09.203Z,37.53
2023-05-27T00:43:09.331Z,37.57
2023-05-27T00:44:09.307Z,37.55
2023-05-27T00:45:09.383Z,37.56
2023-05-27T00:46:09.445Z,37.57
2023-05-27T00:47:09.509Z,37.61
2023-05-27T00:48:09.615Z,37.61
2023-05-27T00:49:09.650Z,37.63
2023-05-27T00:50:09.711Z,37.61
2023-05-27T00:51:09.767Z,37.64
2023-05-27T00:52:09.826Z,37.68
2023-05-27T00:53:09.876Z,37.66
2023-05-27T00:54:09.913Z,37.69
2023-05-27T00:55:09.995Z,37.68
2023-05-27T00:56:10.060Z,37.71
2023-05-27T00:57:10.114Z,37.70
2023-05-27T00:58:10.178Z,37.69
2023-05-27T00:59:10.203Z,37.71
2023-05-27T01:00:10.283Z,37.71
2023-05-27T01:01:10.400Z,37.69
2023-05-27T01:02:10.434Z,37.68
2023-05-27T01:03:10.499Z,37.67
2023-05-27T01:04:10.513Z,37.69
2023-05-27T01:05:10.587Z,37.68
2023-05-27T01:06:10.645Z,37.69
2023-05-27T01:07:10.698Z,37.67
2023-05-27T01:08:10.744Z,37.64
2023-05-27T01:09:10.782Z,37.60
2023-05-27T01:10:10.857Z,37.59
2023-05-27T01:11:10.942Z,37.60
2023-05-27T01:12:11.004Z,37.59
2023-05-27T01:13:11.054Z,37.59
2023-05-27T01:14:11.086Z,37.60
2023-05-27T01:15:11.185Z,37.57
2023-05-27T01:16:11.218Z,37.55
2023-05-27T01:17:11.376Z,37.58
2023-05-27T01:18:11.383Z,37.53
2023-05-27T01:19:11.412Z,37.52
2023-05-27T01:20:11.535Z,37.52
2023-05-27T01:21:11.555Z,37.51
2023-05-27T01:22:11.569Z,37.51
2023-05-27T01:23:11.638Z,37.49
2023-05-27T01:24:11.689Z,37.51
2023-05-27T01:25:11.789Z,37.50
2023-05-27T01:26:11.824Z,37.50
2023-05-27T01:27:11.879Z,37.51
2023-05-27T01:28:11.925Z,37.50
2023-05-27T01:29:11.983Z,37.52
2023-05-27T01:30:12.061Z,37.52
2023-05-27T01:31:12.184Z,37.51
2023-05-27T01:32:12.188Z,37.50
2023-05-27T01:33:12.285Z,37.51
2023-05-27T01:34:12.303Z,37.52
2023-05-27T01:35:12.402Z,37.51
2023-05-27T01:36:12.416Z,37.53
2023-05-27T01:37:12.478Z,37.53
2023-05-27T01:38:12.577Z,37.51
2023-05-27T01:39:12.641Z,37.53
2023-05-27T01:40:12.656Z,37.53
2023-05-27T01:41:12.724Z,37.49
2023-05-27T01:42:12.858Z,37.49
2023-05-27T01:43:12.844Z,37.50
2023-05-27T01:44:12.888Z,37.50
2023-05-27T01:45:12.965Z,37.51
2023-05-27T01:46:13.108Z,37.53
2023-05-27T01:47:13.085Z,37.52
2023-05-27T01:48:13.170Z,37.50
2023-05-27T01:49:13.156Z,37.51
2023-05-27T01:50:13.259Z,37.51
2023-05-27T01:51:13.276Z,37.50
2023-05-27T01:52:13.332Z,37.51
2023-05-27T01:53:13.418Z,37.48
2023-05-27T01:54:13.485Z,37.51
2023-05-27T01:55:13.537Z,37.46
2023-05-27T01:56:13.591Z,37.49
2023-05-27T01:57:13.648Z,37.47
2023-05-27T01:58:13.671Z,37.48
2023-05-27T01:59:13.737Z,37.49
2023-05-27T02:00:13.815Z,37.50
2023-05-27T02:01:13.962Z,37.49
2023-05-27T02:02:13.908Z,37.48
2023-05-27T02:03:14.042Z,37.48
2023-05-27T02:04:14.027Z,37.49
2023-05-27T02:05:14.086Z,37.47
2023-05-27T02:06:14.148Z,37.48
2023-05-27T02:07:14.195Z,37.48
2023-05-27T02:08:14.278Z,37.48
2023-05-27T02:09:14.299Z,37.48
2023-05-27T02:10:14.397Z,37.48
2023-05-27T02:11:14.441Z,37.46
2023-05-27T02:12:14.525Z,37.46
2023-05-27T02:13:14.550Z,37.45
2023-05-27T02:14:14.589Z,37.45
2023-05-27T02:15:14.623Z,37.43
2023-05-27T02:16:14.707Z,37.44
2023-05-27T02:17:14.764Z,37.43
2023-05-27T02:18:14.795Z,37.42
2023-05-27T02:19:14.860Z,37.44
2023-05-27T02:20:14.911Z,37.42
2023-05-27T02:21:14.976Z,37.43
2023-05-27T02:22:14.977Z,37.45
2023-05-27T02:23:15.024Z,37.45
2023-05-27T02:24:15.100Z,37.47
2023-05-27T02:25:15.130Z,37.47
2023-05-27T02:26:15.202Z,37.49
2023-05-27T02:27:15.228Z,37.48
2023-05-27T02:28:15.304Z,37.51
2023-05-27T02:29:15.356Z,37.50
2023-05-27T02:30:15.397Z,37.52
2023-05-27T02:31:15.524Z,37.51
2023-05-27T02:32:15.502Z,37.51
2023-05-27T02:33:15.635Z,37.53
2023-05-27T02:34:15.628Z,37.54
2023-05-27T02:35:15.716Z,37.55
2023-05-27T02:36:15.744Z,37.54
2023-05-27T02:37:15.799Z,37.53
2023-05-27T02:38:15.851Z,37.54
2023-05-27T02:39:15.883Z,37.53
2023-05-27T02:40:15.954Z,37.56
2023-05-27T02:41:15.996Z,37.55
2023-05-27T02:42:16.092Z,37.55
2023-05-27T02:43:16.091Z,37.56
2023-05-27T02:44:16.174Z,37.59
2023-05-27T02:45:16.208Z,37.60
2023-05-27T02:46:16.326Z,37.57
2023-05-27T02:47:16.292Z,37.60
2023-05-27T02:48:16.366Z,37.59
2023-05-27T02:49:16.444Z,37.61
2023-05-27T02:50:16.491Z,37.60
2023-05-27T02:51:16.527Z,37.61
2023-05-27T02:52:16.566Z,37.60
2023-05-27T02:53:16.594Z,37.60
2023-05-27T02:54:16.684Z,37.61
2023-05-27T02:55:16.698Z,37.63
2023-05-27T02:56:16.768Z,37.62
2023-05-27T02:57:17.061Z,37.62
2023-05-27T02:58:16.870Z,37.61
2023-05-27T02:59:16.907Z,37.64
2023-05-27T03:00:17.064Z,37.63
2023-05-27T03:01:17.026Z,37.63
2023-05-27T03:02:17.055Z,37.60
2023-05-27T03:03:17.156Z,37.61
2023-05-27T03:04:17.160Z,37.61
2023-05-27T03:05:17.215Z,37.62
2023-05-27T03:06:17.282Z,37.62
2023-05-27T03:07:17.315Z,37.62
2023-05-27T03:08:17.364Z,37.62
2023-05-27T03:09:17.422Z,37.62
2023-05-27T03:10:17.457Z,37.62
2023-05-27T03:11:17.500Z,37.61
2023-05-27T03:12:17.568Z,37.60
2023-05-27T03:13:17.631Z,37.62
2023-05-27T03:14:17.694Z,37.65
2023-05-27T03:15:17.738Z,37.63
2023-05-27T03:16:17.840Z,37.63
2023-05-27T03:17:17.867Z,37.63
2023-05-27T03:18:17.884Z,37.61
2023-05-27T03:19:17.937Z,37.61
2023-05-27T03:20:18.098Z,37.62
2023-05-27T03:21:18.056Z,37.61
2023-05-27T03:22:18.113Z,37.64
2023-05-27T03:23:18.160Z,37.62
2023-05-27T03:24:18.195Z,37.63
2023-05-27T03:25:18.278Z,37.64
2023-05-27T03:26:18.308Z,37.65
2023-05-27T03:27:18.364Z,37.63
2023-05-27T03:28:18.421Z,37.64
2023-05-27T03:29:18.475Z,37.66
2023-05-27T03:30:18.532Z,37.61
2023-05-27T03:31:18.541Z,37.66
2023-05-27T03:32:18.665Z,37.64
2023-05-27T03:33:18.634Z,37.66
2023-05-27T03:34:18.714Z,37.64
2023-05-27T03:35:18.764Z,37.65
2023-05-27T03:36:18.814Z,37.66
2023-05-27T03:37:18.845Z,37.60
2023-05-27T03:38:18.938Z,37.57
2023-05-27T03:39:18.961Z,37.60
2023-05-27T03:40:19.005Z,37.58
2023-05-27T03:41:19.072Z,37.62
2023-05-27T03:42:19.111Z,37.59
2023-05-27T03:43:19.180Z,37.61
2023-05-27T03:44:19.249Z,37.58
2023-05-27T03:45:19.280Z,37.58
2023-05-27T03:46:19.363Z,37.58
2023-05-27T03:47:19.400Z,37.57
2023-05-27T03:48:19.447Z,37.61
2023-05-27T03:49:19.517Z,37.59
2023-05-27T03:50:19.585Z,37.58
2023-05-27T03:51:19.599Z,37.58
2023-05-27T03:52:19.699Z,37.60
2023-05-27T03:53:19.711Z,37.60
2023-05-27T03:54:19.751Z,37.60
2023-05-27T03:55:19.824Z,37.59
2023-05-27T03:56:19.897Z,37.58
2023-05-27T03:57:19.953Z,37.54
2023-05-27T03:58:19.986Z,37.55
2023-05-27T03:59:20.028Z,37.56
2023-05-27T04:00:20.072Z,37.51
2023-05-27T04:01:20.189Z,37.56
2023-05-27T04:02:20.229Z,37.53
2023-05-27T04:03:20.448Z,37.52
2023-05-27T04:04:20.340Z,37.47
2023-05-27T04:05:20.329Z,37.46
2023-05-27T04:06:20.393Z,37.47
2023-05-27T04:07:20.426Z,37.42
2023-05-27T04:08:20.493Z,37.40
2023-05-27T04:09:20.526Z,37.38
2023-05-27T04:10:20.578Z,37.38
2023-05-27T04:11:21.899Z,37.38
2023-05-27T04:12:20.702Z,37.36
2023-05-27T04:13:20.746Z,37.33
2023-05-27T04:14:20.786Z,37.32
2023-05-27T04:15:20.840Z,37.31
2023-05-27T04:16:20.954Z,37.28
2023-05-27T04:17:20.944Z,37.28
2023-05-27T04:18:20.997Z,37.29
2023-05-27T04:19:21.031Z,37.25
2023-05-27T04:20:21.114Z,37.27
2023-05-27T04:21:21.141Z,37.24
2023-05-27T04:22:21.195Z,37.24
2023-05-27T04:23:21.208Z,37.25
2023-05-27T04:24:21.262Z,37.25
2023-05-27T04:25:21.321Z,37.25
2023-05-27T04:26:21.368Z,37.23
2023-05-27T04:27:21.396Z,37.25
2023-05-27T04:28:21.512Z,37.21
2023-05-27T04:29:21.562Z,37.20
2023-05-27T04:30:21.493Z,37.22
2023-05-27T04:31:21.559Z,37.22
2023-05-27T04:32:21.696Z,37.20
2023-05-27T04:33:21.667Z,37.25
2023-05-27T04:34:21.659Z,37.23
2023-05-27T04:35:21.710Z,37.23
2023-05-27T04:36:21.753Z,37.23
2023-05-27T04:37:21.818Z,37.24
2023-05-27T04:38:21.835Z,37.24
2023-05-27T04:39:21.900Z,37.20
2023-05-27T04:40:21.926Z,37.19
2023-05-27T04:41:21.993Z,37.20
2023-05-27T04:42:22.057Z,37.24
2023-05-27T04:43:22.078Z,37.23
2023-05-27T04:44:22.136Z,37.23
2023-05-27T04:45:22.164Z,37.21
2023-05-27T04:46:22.278Z,37.21
2023-05-27T04:47:22.373Z,37.22
2023-05-27T04:48:22.293Z,37.23
2023-05-27T04:49:22.343Z,37.22
2023-05-27T04:50:22.421Z,37.23
2023-05-27T04:51:22.459Z,37.22
2023-05-27T04:52:22.544Z,37.24
2023-05-27T04:53:22.531Z,37.23
2023-05-27T04:54:22.583Z,37.26
2023-05-27T04:55:22.627Z,37.23
2023-05-27T04:56:22.672Z,37.25
2023-05-27T04:57:22.716Z,37.25
2023-05-27T04:58:22.774Z,37.28
2023-05-27T04:59:22.894Z,37.25
2023-05-27T05:00:22.853Z,37.25
2023-05-27T05:01:23.059Z,37.25
2023-05-27T05:02:23.063Z,37.26
2023-05-27T05:03:23.321Z,37.22
2023-05-27T05:04:23.008Z,37.25
2023-05-27T05:05:23.062Z,37.24
2023-05-27T05:06:23.079Z,37.20
2023-05-27T05:07:23.148Z,37.25
2023-05-27T05:08:23.194Z,37.21
2023-05-27T05:09:23.245Z,37.20
2023-05-27T05:10:23.278Z,37.21
2023-05-27T05:11:23.326Z,37.20
2023-05-27T05:12:23.367Z,37.24
2023-05-27T05:13:23.434Z,37.22
2023-05-27T05:14:23.470Z,37.26
2023-05-27T05:15:23.498Z,37.24
2023-05-27T05:16:23.591Z,37.24
2023-05-27T05:17:23.623Z,37.23
2023-05-27T05:18:23.617Z,37.25
2023-05-27T05:19:23.697Z,37.23
2023-05-27T05:20:23.794Z,37.23
2023-05-27T05:21:23.779Z,37.23
2023-05-27T05:22:23.800Z,37.22
2023-05-27T05:23:23.826Z,37.21
2023-05-27T05:24:23.854Z,37.20
2023-05-27T05:25:23.921Z,37.24
2023-05-27T05:26:23.938Z,37.23
2023-05-27T05:27:23.978Z,37.24
2023-05-27T05:28:23.998Z,37.21
2023-05-27T05:29:24.034Z,37.24
2023-05-27T05:30:24.066Z,37.22
2023-05-27T05:31:24.217Z,37.23
2023-05-27T05:32:24.175Z,37.22
2023-05-27T05:33:24.505Z,37.21
2023-05-27T05:34:24.228Z,37.19
2023-05-27T05:35:24.272Z,37.19
2023-05-27T05:36:24.282Z,37.18
2023-05-27T05:37:24.340Z,37.16
2023-05-27T05:38:24.388Z,37.19
2023-05-27T05:39:24.427Z,37.16
2023-05-27T05:40:24.467Z,37.19
2023-05-27T05:41:24.508Z,37.19
2023-05-27T05:42:24.532Z,37.15
2023-05-27T05:43:24.590Z,37.16
2023-05-27T05:44:24.612Z,37.17
2023-05-27T05:45:24.654Z,37.16
2023-05-27T05:46:24.720Z,37.14
2023-05-27T05:47:24.810Z,37.16
2023-05-27T05:48:24.803Z,37.14
2023-05-27T05:49:24.801Z,37.17
2023-05-27T05:50:24.877Z,37.14
2023-05-27T05:51:24.915Z,37.14
2023-05-27T05:52:24.925Z,37.13
2023-05-27T05:53:24.938Z,37.12
2023-05-27T05:54:25.011Z,37.14
2023-05-27T05:55:25.059Z,37.15
2023-05-27T05:56:25.077Z,37.12
2023-05-27T05:57:25.141Z,37.12
2023-05-27T05:58:25.157Z,37.12
2023-05-27T05:59:25.198Z,37.08
2023-05-27T06:00:25.220Z,37.12
2023-05-27T06:01:25.269Z,37.11
2023-05-27T06:02:25.334Z,37.09
2023-05-27T06:03:25.459Z,37.06
2023-05-27T06:04:25.398Z,37.09
2023-05-27T06:05:25.427Z,37.11
2023-05-27T06:06:25.483Z,37.04
2023-05-27T06:07:25.518Z,37.05
2023-05-27T06:08:25.546Z,37.07
2023-05-27T06:09:25.593Z,37.04
2023-05-27T06:10:25.626Z,37.04
2023-05-27T06:11:25.652Z,37.03
2023-05-27T06:12:26.449Z,37.00
2023-05-27T06:13:25.749Z,37.01
2023-05-27T06:14:25.799Z,37.01
2023-05-27T06:15:25.819Z,37.00
2023-05-27T06:16:25.853Z,37.00
2023-05-27T06:17:25.941Z,36.98
2023-05-27T06:18:25.935Z,36.98
2023-05-27T06:19:25.989Z,36.97
2023-05-27T06:20:26.016Z,36.96
2023-05-27T06:21:26.052Z,36.95
2023-05-27T06:22:26.129Z,36.93
2023-05-27T06:23:26.144Z,36.92
2023-05-27T06:24:26.189Z,36.90
2023-05-27T06:25:26.210Z,36.91
2023-05-27T06:26:26.243Z,36.88
2023-05-27T06:27:26.287Z,36.89
2023-05-27T06:28:26.361Z,36.90
2023-05-27T06:29:26.375Z,36.88
2023-05-27T06:30:26.400Z,36.93
2023-05-27T06:31:26.483Z,36.91
2023-05-27T06:32:26.542Z,36.87
2023-05-27T06:33:26.503Z,36.88
2023-05-27T06:34:26.553Z,36.90
2023-05-27T06:35:26.625Z,36.87
2023-05-27T06:36:26.671Z,36.83
2023-05-27T06:37:26.699Z,36.84
2023-05-27T06:38:26.721Z,36.82
2023-05-27T06:39:26.804Z,36.81
2023-05-27T06:40:26.879Z,36.79
2023-05-27T06:41:26.855Z,36.82
2023-05-27T06:42:26.884Z,36.81
2023-05-27T06:43:26.913Z,36.80
2023-05-27T06:44:26.963Z,36.80
2023-05-27T06:45:27.017Z,36.80
2023-05-27T06:46:27.078Z,36.83
2023-05-27T06:47:27.136Z,36.78
2023-05-27T06:48:27.093Z,36.80
2023-05-27T06:49:27.180Z,36.81
2023-05-27T06:50:27.223Z,36.77
2023-05-27T06:51:27.213Z,36.74
2023-05-27T06:52:27.250Z,36.75
2023-05-27T06:53:27.294Z,36.75
2023-05-27T06:54:27.341Z,36.73
2023-05-27T06:55:27.365Z,36.79
2023-05-27T06:56:27.469Z,36.74
2023-05-27T06:57:27.424Z,36.72
2023-05-27T06:58:27.462Z,36.72
2023-05-27T06:59:27.517Z,36.71
2023-05-27T07:00:27.520Z,36.75
2023-05-27T07:01:27.576Z,36.71
2023-05-27T07:02:27.654Z,36.69
2023-05-27T07:03:27.607Z,36.69
2023-05-27T07:04:27.654Z,36.67
2023-05-27T07:05:27.772Z,36.68
2023-05-27T07:06:27.725Z,36.68
2023-05-27T07:07:27.773Z,36.69
2023-05-27T07:08:27.822Z,36.70
2023-05-27T07:09:27.954Z,36.69
2023-05-27T07:10:27.913Z,36.68
2023-05-27T07:11:27.930Z,36.66
2023-05-27T07:12:27.976Z,36.64
2023-05-27T07:13:28.012Z,36.64
2023-05-27T07:14:28.041Z,36.65
2023-05-27T07:15:28.136Z,36.63
2023-05-27T07:16:28.223Z,36.64
2023-05-27T07:17:28.132Z,36.63
2023-05-27T07:18:28.180Z,36.59
2023-05-27T07:19:28.214Z,36.61
2023-05-27T07:20:28.305Z,36.56
2023-05-27T07:21:28.372Z,36.56
2023-05-27T07:22:28.405Z,36.56
2023-05-27T07:23:28.437Z,36.59
2023-05-27T07:24:28.501Z,36.59
2023-05-27T07:25:28.515Z,36.53
2023-05-27T07:26:28.600Z,36.55
2023-05-27T07:27:28.693Z,36.56
2023-05-27T07:28:28.818Z,36.55
2023-05-27T07:29:28.854Z,36.51
2023-05-27T07:30:28.916Z,36.51
2023-05-27T07:31:29.015Z,36.48
2023-05-27T07:32:29.047Z,36.51
2023-05-27T07:33:29.122Z,36.47
2023-05-27T07:34:29.191Z,36.49
2023-05-27T07:35:29.248Z,36.48
2023-05-27T07:36:29.318Z,36.48
2023-05-27T07:37:29.400Z,36.48
2023-05-27T07:38:29.430Z,36.48
2023-05-27T07:39:29.493Z,36.47
2023-05-27T07:40:29.594Z,36.45
2023-05-27T07:41:29.643Z,36.42
2023-05-27T07:42:31.865Z,36.39
2023-05-27T07:43:29.719Z,36.43
2023-05-27T07:44:29.763Z,36.42
2023-05-27T07:45:29.794Z,36.41
2023-05-27T07:46:29.882Z,36.37
2023-05-27T07:47:29.885Z,36.39
2023-05-27T07:48:29.866Z,36.37
2023-05-27T07:49:29.892Z,36.39
2023-05-27T07:50:29.942Z,36.38
2023-05-27T07:51:29.949Z,36.39
2023-05-27T07:52:29.995Z,36.36
2023-05-27T07:53:30.004Z,36.36
2023-05-27T07:54:31.682Z,36.37
2023-05-27T07:55:30.049Z,36.38
2023-05-27T07:56:30.065Z,36.37
2023-05-27T07:57:30.122Z,36.38
2023-05-27T07:58:30.101Z,36.37
2023-05-27T07:59:30.140Z,36.37
2023-05-27T08:00:30.206Z,36.35
2023-05-27T08:01:30.218Z,36.34
2023-05-27T08:02:30.291Z,36.30
2023-05-27T08:03:30.291Z,36.33
2023-05-27T08:04:30.345Z,36.31
2023-05-27T08:05:30.306Z,36.34
2023-05-27T08:06:30.322Z,36.30
2023-05-27T08:07:30.347Z,36.31
2023-05-27T08:08:30.373Z,36.31
2023-05-27T08:09:30.370Z,36.27
2023-05-27T08:10:30.414Z,36.26
2023-05-27T08:11:30.402Z,36.26
2023-05-27T08:12:30.478Z,36.18
2023-05-27T08:13:30.512Z,36.20
2023-05-27T08:14:30.485Z,36.17
2023-05-27T08:15:30.539Z,36.25
2023-05-27T08:16:30.566Z,36.19
2023-05-27T08:17:30.685Z,36.21
2023-05-27T08:18:30.625Z,36.24
2023-05-27T08:19:30.642Z,36.24
2023-05-27T08:20:30.694Z,36.23
2023-05-27T08:21:31.255Z,36.18
2023-05-27T08:22:30.663Z,36.18
2023-05-27T08:23:30.711Z,36.13
2023-05-27T08:24:30.811Z,36.13
2023-05-27T08:25:30.758Z,36.16
2023-05-27T08:26:30.741Z,36.17
2023-05-27T08:27:30.778Z,36.12
2023-05-27T08:28:30.763Z,36.13
2023-05-27T08:29:30.795Z,36.14
2023-05-27T08:30:30.853Z,36.18
2023-05-27T08:31:30.889Z,36.16
2023-05-27T08:32:30.885Z,36.18
2023-05-27T08:33:30.885Z,36.19
2023-05-27T08:34:30.888Z,36.11
2023-05-27T08:35:30.982Z,36.09
2023-05-27T08:36:31.082Z,36.04
2023-05-27T08:37:31.151Z,36.05
2023-05-27T08:38:31.240Z,35.98
2023-05-27T08:39:31.271Z,35.93
2023-05-27T08:40:31.364Z,36.00
2023-05-27T08:41:31.395Z,36.02
2023-05-27T08:42:31.504Z,35.99
2023-05-27T08:43:31.590Z,35.97
2023-05-27T08:44:31.690Z,35.96
2023-05-27T08:45:31.733Z,35.97
2023-05-27T08:46:31.898Z,35.99
2023-05-27T08:47:31.934Z,35.98
2023-05-27T08:48:31.980Z,35.99
2023-05-27T08:49:32.035Z,35.94
2023-05-27T08:50:32.125Z,35.96
2023-05-27T08:51:32.221Z,35.96
2023-05-27T08:52:32.288Z,35.96
2023-05-27T08:53:32.358Z,35.94
2023-05-27T08:54:32.436Z,35.96
2023-05-27T08:55:32.602Z,35.94
2023-05-27T08:56:32.638Z,35.89
2023-05-27T08:57:32.757Z,35.90
2023-05-27T08:58:32.767Z,35.91
2023-05-27T08:59:32.825Z,35.89
2023-05-27T09:00:32.937Z,35.87
2023-05-27T09:01:33.041Z,35.91
2023-05-27T09:02:33.183Z,35.92
2023-05-27T09:03:33.222Z,35.86
2023-05-27T09:04:33.258Z,35.84
2023-05-27T09:05:33.315Z,35.70
2023-05-27T09:06:33.434Z,35.66
2023-05-27T09:07:33.520Z,35.68
2023-05-27T09:08:49.778Z,35.68
2023-05-27T09:09:34.610Z,35.72
2023-05-27T09:10:33.645Z,35.80
2023-05-27T09:11:33.647Z,35.71
2023-05-27T09:12:33.664Z,35.64
2023-05-27T09:13:33.652Z,35.63
2023-05-27T09:14:33.706Z,35.63
2023-05-27T09:15:33.721Z,35.64
2023-05-27T09:16:33.767Z,35.59
2023-05-27T09:17:33.927Z,35.61
2023-05-27T09:18:33.757Z,35.67
2023-05-27T09:19:33.863Z,35.66
2023-05-27T09:20:34.020Z,35.70
2023-05-27T09:21:33.951Z,35.75
2023-05-27T09:22:34.040Z,35.71
2023-05-27T09:23:34.048Z,35.73
2023-05-27T09:24:34.142Z,35.73
2023-05-27T09:25:34.184Z,35.72
2023-05-27T09:26:34.240Z,35.71
2023-05-27T09:27:34.346Z,35.73
2023-05-27T09:28:34.335Z,35.72
2023-05-27T09:29:34.449Z,35.74
2023-05-27T09:30:34.488Z,35.78
2023-05-27T09:31:34.591Z,35.80
2023-05-27T09:32:34.645Z,35.81
2023-05-27T09:33:34.672Z,35.82
2023-05-27T09:34:34.715Z,35.80
2023-05-27T09:35:34.786Z,35.85
2023-05-27T09:36:34.871Z,35.82
2023-05-27T09:37:34.941Z,35.84
2023-05-27T09:38:35.005Z,35.84
2023-05-27T09:39:35.080Z,35.84
2023-05-27T09:40:35.144Z,35.85
2023-05-27T09:41:35.207Z,35.84
2023-05-27T09:42:35.283Z,35.84
2023-05-27T09:43:35.365Z,35.88
2023-05-27T09:44:36.414Z,35.86
2023-05-27T09:45:35.467Z,35.89
2023-05-27T09:46:35.464Z,35.89
2023-05-27T09:47:35.488Z,35.92
2023-05-27T09:48:35.471Z,35.94
2023-05-27T09:49:35.464Z,35.95
2023-05-27T09:50:35.531Z,35.91
2023-05-27T09:51:35.523Z,35.94
2023-05-27T09:52:40.375Z,35.93
2023-05-27T09:53:36.561Z,35.93
2023-05-27T09:54:35.560Z,35.92
2023-05-27T09:55:35.618Z,35.92
2023-05-27T09:56:35.589Z,35.91
2023-05-27T09:57:35.601Z,35.93
2023-05-27T09:58:35.651Z,35.92
2023-05-27T09:59:35.683Z,35.93
2023-05-27T10:00:35.678Z,35.96
2023-05-27T10:01:35.726Z,35.95
2023-05-27T10:02:35.768Z,35.95
2023-05-27T10:03:35.844Z,35.93
2023-05-27T10:04:35.911Z,35.91
2023-05-27T10:05:36.014Z,35.91
2023-05-27T10:06:36.079Z,35.91
2023-05-27T10:07:39.082Z,35.82
2023-05-27T10:08:37.180Z,35.80
2023-05-27T10:09:36.201Z,35.75
2023-05-27T10:10:36.218Z,35.62
2023-05-27T10:11:36.232Z,35.52
2023-05-27T10:12:36.249Z,35.43
2023-05-27T10:13:36.272Z,35.50
2023-05-27T10:14:36.255Z,35.39
2023-05-27T10:15:36.312Z,35.44
2023-05-27T10:16:36.352Z,35.41
2023-05-27T10:17:36.463Z,35.41
2023-05-27T10:18:36.419Z,35.48
2023-05-27T10:19:36.508Z,35.47
2023-05-27T10:20:37.327Z,35.47
2023-05-27T10:21:36.867Z,35.37
2023-05-27T10:22:36.742Z,35.23
2023-05-27T10:23:36.831Z,35.22
2023-05-27T10:24:36.895Z,35.19
2023-05-27T10:25:36.958Z,35.10
2023-05-27T10:26:37.038Z,35.14
2023-05-27T10:27:37.103Z,35.03
2023-05-27T10:28:37.320Z,34.98
2023-05-27T10:29:37.228Z,34.69
2023-05-27T10:30:37.326Z,34.75
2023-05-27T10:31:37.446Z,34.77
2023-05-27T10:32:37.549Z,34.90
2023-05-27T10:33:37.540Z,34.80
2023-05-27T10:34:37.624Z,34.89
2023-05-27T10:35:37.677Z,34.78
2023-05-27T10:36:37.811Z,34.67
2023-05-27T10:37:37.847Z,34.88
2023-05-27T10:38:37.935Z,34.97
2023-05-27T10:39:37.963Z,34.94
2023-05-27T10:40:38.045Z,34.75
2023-05-27T10:41:38.139Z,34.60
2023-05-27T10:42:38.205Z,34.67
2023-05-27T10:43:38.292Z,34.54
2023-05-27T10:44:38.350Z,34.46
2023-05-27T10:45:38.480Z,34.53
2023-05-27T10:46:38.669Z,34.49
2023-05-27T10:47:38.600Z,34.45
2023-05-27T10:48:38.678Z,34.03
2023-05-27T10:49:38.756Z,34.04
2023-05-27T10:50:38.817Z,34.05
2023-05-27T10:51:38.858Z,33.98
2023-05-27T10:52:38.942Z,33.97
2023-05-27T10:53:39.033Z,34.11
2023-05-27T10:54:39.081Z,34.03
2023-05-27T10:55:39.174Z,34.05
2023-05-27T10:56:39.247Z,33.97
2023-05-27T10:57:39.599Z,33.93
2023-05-27T10:58:39.405Z,33.94
2023-05-27T10:59:39.458Z,33.83
2023-05-27T11:00:39.512Z,33.93
2023-05-27T11:01:39.646Z,34.05
2023-05-27T11:02:39.750Z,33.84
2023-05-27T11:03:39.756Z,33.78
2023-05-27T11:04:39.809Z,33.71
2023-05-27T11:05:39.899Z,33.62
2023-05-27T11:06:39.973Z,33.47
2023-05-27T11:07:40.082Z,33.56
2023-05-27T11:08:40.185Z,33.44
2023-05-27T11:09:40.218Z,33.44
2023-05-27T11:10:40.329Z,33.42
2023-05-27T11:11:40.379Z,33.59
2023-05-27T11:12:40.463Z,33.57
2023-05-27T11:13:40.538Z,33.56
2023-05-27T11:14:40.624Z,33.59
2023-05-27T11:15:40.690Z,33.49
2023-05-27T11:16:40.821Z,33.46
2023-05-27T11:17:40.835Z,33.40
2023-05-27T11:18:40.863Z,33.47
2023-05-27T11:19:40.949Z,33.35
2023-05-27T11:20:41.019Z,33.09
2023-05-27T11:21:41.071Z,33.22
2023-05-27T11:22:41.135Z,33.27
2023-05-27T11:23:41.217Z,33.05
2023-05-27T11:24:41.250Z,33.18
2023-05-27T11:25:41.343Z,32.96
2023-05-27T11:26:41.434Z,32.88
2023-05-27T11:27:41.530Z,33.04
2023-05-27T11:28:41.598Z,33.06
2023-05-27T11:29:41.687Z,32.87
2023-05-27T11:30:41.752Z,32.90
2023-05-27T11:31:41.857Z,32.80
2023-05-27T11:32:42.671Z,32.46
2023-05-27T11:33:42.018Z,32.05
2023-05-27T11:34:42.046Z,31.83
2023-05-27T11:35:42.117Z,31.88
2023-05-27T11:36:42.180Z,32.05
2023-05-27T11:37:42.233Z,32.33
2023-05-27T11:38:42.333Z,32.19
2023-05-27T11:39:42.386Z,32.30
2023-05-27T11:40:42.456Z,32.25
2023-05-27T11:41:42.546Z,32.33
2023-05-27T11:42:42.628Z,32.32
2023-05-27T11:43:42.648Z,32.25
2023-05-27T11:44:42.728Z,32.20
2023-05-27T11:45:42.860Z,32.17
2023-05-27T11:46:42.890Z,32.37
2023-05-27T11:47:42.968Z,32.25
2023-05-27T11:48:43.001Z,32.23
2023-05-27T11:49:43.090Z,32.34
2023-05-27T11:50:44.115Z,32.31
2023-05-27T11:51:43.196Z,32.20
2023-05-27T11:52:43.328Z,32.23
2023-05-27T11:53:43.343Z,32.37
2023-05-27T11:54:46.549Z,32.19
2023-05-27T11:55:44.436Z,32.23
2023-05-27T11:56:43.430Z,32.07
2023-05-27T11:57:43.457Z,32.10
2023-05-27T11:58:43.516Z,31.91
2023-05-27T11:59:43.498Z,31.96
2023-05-27T12:00:44.467Z,32.12
2023-05-27T12:01:43.517Z,32.13
2023-05-27T12:02:43.692Z,32.02
2023-05-27T12:03:43.569Z,31.84
2023-05-27T12:04:43.581Z,31.77
2023-05-27T12:05:43.590Z,31.65
2023-05-27T12:06:43.650Z,31.34
2023-05-27T12:07:43.770Z,30.94
2023-05-27T12:08:43.807Z,31.12
2023-05-27T12:09:43.878Z,31.11
2023-05-27T12:10:43.975Z,31.19
2023-05-27T12:11:44.041Z,31.36
2023-05-27T12:12:44.166Z,31.48
2023-05-27T12:13:44.216Z,31.50
2023-05-27T12:14:44.228Z,31.51
2023-05-27T12:15:44.327Z,31.50
2023-05-27T12:16:44.385Z,31.27
2023-05-27T12:17:44.453Z,31.16
2023-05-27T12:18:44.482Z,31.10
2023-05-27T12:19:44.547Z,31.12
2023-05-27T12:20:44.746Z,31.15
2023-05-27T12:21:44.673Z,31.07
2023-05-27T12:22:44.783Z,31.12
2023-05-27T12:23:44.843Z,31.21
2023-05-27T12:24:45.005Z,31.22
2023-05-27T12:25:44.979Z,31.26
2023-05-27T12:26:45.042Z,31.43
2023-05-27T12:27:45.106Z,31.14
2023-05-27T12:28:45.157Z,31.20
2023-05-27T12:29:45.216Z,31.09
2023-05-27T12:30:45.554Z,31.14
2023-05-27T12:31:45.398Z,31.27
2023-05-27T12:32:45.512Z,31.15
2023-05-27T12:33:45.550Z,31.21
2023-05-27T12:34:45.594Z,31.00
2023-05-27T12:35:45.645Z,30.77
2023-05-27T12:36:45.744Z,30.88
2023-05-27T12:37:45.792Z,30.87
2023-05-27T12:38:45.887Z,30.76
2023-05-27T12:39:45.928Z,30.64
2023-05-27T12:40:46.037Z,30.81
2023-05-27T12:41:46.096Z,30.89
2023-05-27T12:42:46.161Z,30.78
2023-05-27T12:43:46.224Z,30.89
2023-05-27T12:44:46.325Z,30.89
2023-05-27T12:45:46.357Z,30.89
2023-05-27T12:46:46.492Z,30.82
2023-05-27T12:47:46.595Z,30.80
2023-05-27T12:48:46.580Z,30.92
2023-05-27T12:49:46.657Z,30.87
2023-05-27T12:50:46.730Z,30.81
2023-05-27T12:51:46.792Z,30.77
2023-05-27T12:52:46.896Z,30.66